createdAt,value
2023-11-29T00:00:25.314Z,4.67
2023-11-29T00:02:55.218Z,4.23
2023-11-29T00:05:29.900Z,4.10
2023-11-29T00:08:09.645Z,3.70
2023-11-29T00:10:39.733Z,4.77
2023-11-29T00:13:09.671Z,4.53
2023-11-29T00:15:39.502Z,4.80
2023-11-29T00:18:10.080Z,3.93
2023-11-29T00:20:40.074Z,4.13
2023-11-29T00:23:12.740Z,4.30
2023-11-29T00:25:42.771Z,4.57
2023-11-29T00:28:13.152Z,4.03
2023-11-29T00:30:43.234Z,3.97
2023-11-29T00:33:13.197Z,4.77
2023-11-29T00:35:43.174Z,4.87
2023-11-29T00:38:15.806Z,4.47
2023-11-29T00:40:45.888Z,4.80
2023-11-29T00:43:16.166Z,4.97
2023-11-29T00:45:46.231Z,5.20
2023-11-29T00:48:16.211Z,4.73
2023-11-29T00:50:46.286Z,4.47
2023-11-29T00:53:19.023Z,4.77
2023-11-29T00:55:49.469Z,4.70
2023-11-29T00:58:19.498Z,4.63
2023-11-29T01:00:49.329Z,5.37
2023-11-29T01:03:19.385Z,5.00
2023-11-29T01:05:49.348Z,4.57
2023-11-29T01:08:26.829Z,4.37
2023-11-29T01:10:57.441Z,4.57
2023-11-29T01:13:27.190Z,4.67
2023-11-29T01:15:56.967Z,5.37
2023-11-29T01:18:29.147Z,4.73
2023-11-29T01:20:59.244Z,5.47
2023-11-29T01:23:31.854Z,5.50
2023-11-29T01:26:01.856Z,4.97
2023-11-29T01:28:33.215Z,5.87
2023-11-29T01:31:03.160Z,5.30
2023-11-29T01:33:33.813Z,4.60
2023-11-29T01:36:09.962Z,5.20
2023-11-29T01:38:42.600Z,6.00
2023-11-29T01:41:12.716Z,5.20
2023-11-29T01:43:42.579Z,5.20
2023-11-29T01:46:13.019Z,5.33
2023-11-29T01:48:43.738Z,5.47
2023-11-29T01:51:14.165Z,5.30
2023-11-29T01:53:47.187Z,5.60
2023-11-29T01:56:18.076Z,5.90
2023-11-29T01:58:48.272Z,5.63
2023-11-29T02:01:18.589Z,6.07
2023-11-29T02:03:48.696Z,5.73
2023-11-29T02:06:18.780Z,6.03
2023-11-29T02:08:51.494Z,5.80
2023-11-29T02:11:23.665Z,6.60
2023-11-29T02:13:53.484Z,5.70
2023-11-29T02:16:23.432Z,5.87
2023-11-29T02:18:53.385Z,6.07
2023-11-29T02:21:25.232Z,6.23
2023-11-29T02:24:04.311Z,4.90
2023-11-29T02:26:37.190Z,6.17
2023-11-29T02:29:07.124Z,6.40
2023-11-29T02:31:37.048Z,6.63
2023-11-29T02:34:07.176Z,5.73
2023-11-29T02:36:37.167Z,6.03
2023-11-29T02:39:07.308Z,6.03
2023-11-29T02:41:42.860Z,6.57
2023-11-29T02:44:12.803Z,6.30
2023-11-29T02:46:42.732Z,6.43
2023-11-29T02:49:12.597Z,5.73
2023-11-29T02:51:42.455Z,6.17
2023-11-29T02:54:12.431Z,6.10
2023-11-29T02:56:45.355Z,6.27
2023-11-29T02:59:15.444Z,6.70
2023-11-29T03:01:45.509Z,7.13
2023-11-29T03:04:15.588Z,6.67
2023-11-29T03:06:45.862Z,6.33
2023-11-29T03:09:15.915Z,5.97
2023-11-29T03:11:49.017Z,6.03
2023-11-29T03:14:19.165Z,5.63
2023-11-29T03:16:49.234Z,6.47
2023-11-29T03:19:19.228Z,6.47
2023-11-29T03:21:49.520Z,5.80
2023-11-29T03:24:20.644Z,5.97
2023-11-29T03:26:53.640Z,6.17
2023-11-29T03:29:23.626Z,6.63
2023-11-29T03:31:53.739Z,6.00
2023-11-29T03:34:24.292Z,5.97
2023-11-29T03:36:54.135Z,5.30
2023-11-29T03:39:23.996Z,6.47
2023-11-29T03:41:56.594Z,6.10
2023-11-29T03:44:26.567Z,5.60
2023-11-29T03:46:56.459Z,6.70
2023-11-29T03:49:26.523Z,5.97
2023-11-29T03:51:56.908Z,6.13
2023-11-29T03:54:26.959Z,6.27
2023-11-29T03:56:59.655Z,5.67
2023-11-29T03:59:29.573Z,6.07
2023-11-29T04:01:59.453Z,5.90
2023-11-29T04:04:30.448Z,5.73
2023-11-29T04:07:01.141Z,5.80
2023-11-29T04:09:31.753Z,5.97
2023-11-29T04:12:04.476Z,6.30
2023-11-29T04:14:35.632Z,6.27
2023-11-29T04:17:06.036Z,5.97
2023-11-29T04:19:36.227Z,5.83
2023-11-29T04:22:06.538Z,5.77
2023-11-29T04:24:34.761Z,6.13
2023-11-29T04:27:08.391Z,5.80
2023-11-29T04:29:39.556Z,6.00
2023-11-29T04:32:11.210Z,6.77
2023-11-29T04:34:47.599Z,6.27
2023-11-29T04:37:20.276Z,6.00
2023-11-29T04:39:50.807Z,6.53
2023-11-29T04:42:24.885Z,5.50
2023-11-29T04:44:54.850Z,6.50
2023-11-29T04:47:25.248Z,6.27
2023-11-29T04:49:55.333Z,6.03
2023-11-29T04:52:25.368Z,6.07
2023-11-29T04:54:55.324Z,5.33
2023-11-29T04:57:27.730Z,5.13
2023-11-29T04:59:57.722Z,5.90
2023-11-29T05:02:27.607Z,5.40
2023-11-29T05:04:57.726Z,5.63
2023-11-29T05:07:27.521Z,5.63
2023-11-29T05:09:57.385Z,4.73
2023-11-29T05:12:29.929Z,5.77
2023-11-29T05:14:59.784Z,5.83
2023-11-29T05:17:29.880Z,5.10
2023-11-29T05:19:59.772Z,5.23
2023-11-29T05:22:29.543Z,6.10
2023-11-29T05:24:59.447Z,5.33
2023-11-29T05:27:31.922Z,5.63
2023-11-29T05:30:01.841Z,5.27
2023-11-29T05:32:31.984Z,5.47
2023-11-29T05:35:01.954Z,5.13
2023-11-29T05:37:31.864Z,5.43
2023-11-29T05:40:01.604Z,5.20
2023-11-29T05:42:34.003Z,5.17
2023-11-29T05:45:05.190Z,5.57
2023-11-29T05:47:35.138Z,5.50
2023-11-29T05:50:05.173Z,5.20
2023-11-29T05:52:34.938Z,5.00
2023-11-29T05:55:04.832Z,5.13
2023-11-29T05:57:37.393Z,5.80
2023-11-29T06:00:24.254Z,5.07
2023-11-29T06:03:02.854Z,5.83
2023-11-29T06:05:33.060Z,5.00
2023-11-29T06:08:03.062Z,5.40
2023-11-29T06:10:32.922Z,4.97
2023-11-29T06:13:05.718Z,5.40
2023-11-29T06:15:35.566Z,5.00
2023-11-29T06:18:06.986Z,5.57
2023-11-29T06:20:39.510Z,6.00
2023-11-29T06:23:09.843Z,5.03
2023-11-29T06:25:39.652Z,4.93
2023-11-29T06:28:12.064Z,6.33
2023-11-29T06:30:42.417Z,5.00
2023-11-29T06:33:12.382Z,5.43
2023-11-29T06:35:42.430Z,5.17
2023-11-29T06:38:12.341Z,4.90
2023-11-29T06:40:47.258Z,5.53
2023-11-29T06:43:23.187Z,5.93
2023-11-29T06:45:53.622Z,5.53
2023-11-29T06:48:23.493Z,4.90
2023-11-29T06:50:55.084Z,5.00
2023-11-29T06:53:25.026Z,4.70
2023-11-29T06:55:55.877Z,5.57
2023-11-29T06:58:28.298Z,5.23
2023-11-29T07:00:58.149Z,5.33
2023-11-29T07:03:28.855Z,4.73
2023-11-29T07:06:01.021Z,5.77
2023-11-29T07:08:32.770Z,4.97
2023-11-29T07:11:05.855Z,5.70
2023-11-29T07:13:38.814Z,5.37
2023-11-29T07:16:09.232Z,5.23
2023-11-29T07:18:39.140Z,5.00
2023-11-29T07:21:09.446Z,5.47
2023-11-29T07:23:39.301Z,5.67
2023-11-29T07:26:09.428Z,5.77
2023-11-29T07:28:42.010Z,5.53
2023-11-29T07:31:12.952Z,4.67
2023-11-29T07:33:42.913Z,5.67
2023-11-29T07:36:15.429Z,4.70
2023-11-29T07:38:47.011Z,5.70
2023-11-29T07:41:17.968Z,5.37
2023-11-29T07:43:50.427Z,4.97
2023-11-29T07:46:20.351Z,5.27
2023-11-29T07:48:50.246Z,4.90
2023-11-29T07:51:23.741Z,4.90
2023-11-29T07:53:53.653Z,5.23
2023-11-29T07:56:23.483Z,5.03
2023-11-29T07:58:56.030Z,5.07
2023-11-29T08:01:25.834Z,4.93
2023-11-29T08:03:55.589Z,5.37
2023-11-29T08:06:25.626Z,5.10
2023-11-29T08:08:55.461Z,4.60
2023-11-29T08:11:26.404Z,4.53
2023-11-29T08:13:59.274Z,5.17
2023-11-29T08:16:30.208Z,4.30
2023-11-29T08:19:00.719Z,4.43
2023-11-29T08:21:32.079Z,4.77
2023-11-29T08:24:01.991Z,4.50
2023-11-29T08:26:31.799Z,4.10
2023-11-29T08:29:04.210Z,4.30
2023-11-29T08:31:33.992Z,4.40
2023-11-29T08:34:03.831Z,5.07
2023-11-29T08:36:33.708Z,4.57
2023-11-29T08:39:03.980Z,5.17
2023-11-29T08:41:33.980Z,4.70
2023-11-29T08:44:06.774Z,4.70
2023-11-29T08:46:36.629Z,4.17
2023-11-29T08:49:06.616Z,4.60
2023-11-29T08:51:36.674Z,4.70
2023-11-29T08:54:06.972Z,4.80
2023-11-29T08:56:37.033Z,4.33
2023-11-29T08:59:09.499Z,4.67
2023-11-29T09:01:39.436Z,4.60
2023-11-29T09:04:09.309Z,5.10
2023-11-29T09:06:39.326Z,5.20
2023-11-29T09:09:09.764Z,5.30
2023-11-29T09:11:40.179Z,4.73
2023-11-29T09:14:12.626Z,4.50
2023-11-29T09:16:42.596Z,4.63
2023-11-29T09:19:12.444Z,5.17
2023-11-29T09:21:45.215Z,5.03
2023-11-29T09:24:15.127Z,5.27
2023-11-29T09:26:45.115Z,5.23
2023-11-29T09:29:17.715Z,5.00
2023-11-29T09:31:47.677Z,5.47
2023-11-29T09:34:17.504Z,5.27
2023-11-29T09:36:47.728Z,5.13
2023-11-29T09:39:19.649Z,5.47
2023-11-29T09:41:49.562Z,5.53
2023-11-29T09:44:22.194Z,5.50
2023-11-29T09:46:52.323Z,5.33
2023-11-29T09:49:22.485Z,5.73
2023-11-29T09:51:52.282Z,5.67
2023-11-29T09:54:22.189Z,5.93
2023-11-29T09:56:52.049Z,6.13
2023-11-29T09:59:24.938Z,6.20
2023-11-29T10:01:55.897Z,6.33
2023-11-29T10:04:27.908Z,6.07
2023-11-29T10:06:57.743Z,6.00
2023-11-29T10:09:27.536Z,7.13
2023-11-29T10:11:58.093Z,5.87
2023-11-29T10:14:30.799Z,6.20
2023-11-29T10:17:00.547Z,5.43
2023-11-29T10:19:30.471Z,6.00
2023-11-29T10:22:00.228Z,5.60
2023-11-29T10:24:30.629Z,6.00
2023-11-29T10:27:00.567Z,5.97
2023-11-29T10:29:35.217Z,6.93
2023-11-29T10:32:07.418Z,6.90
2023-11-29T10:34:38.052Z,6.37
2023-11-29T10:37:09.719Z,6.17
2023-11-29T10:39:41.935Z,6.40
2023-11-29T10:42:12.402Z,6.40
2023-11-29T10:44:47.342Z,6.93
2023-11-29T10:47:22.028Z,6.40
2023-11-29T10:49:54.389Z,6.50
2023-11-29T10:52:26.348Z,6.70
2023-11-29T10:54:57.135Z,6.20
2023-11-29T10:57:32.976Z,6.70
2023-11-29T11:00:15.117Z,6.63
2023-11-29T11:02:46.330Z,6.93
2023-11-29T11:05:19.667Z,6.07
2023-11-29T11:07:50.609Z,6.30
2023-11-29T11:10:26.553Z,6.43
2023-11-29T11:12:59.763Z,5.93
2023-11-29T11:15:37.096Z,6.23
2023-11-29T11:18:27.914Z,6.10
2023-11-29T11:21:01.203Z,6.27
2023-11-29T11:23:31.622Z,6.53
2023-11-29T11:26:02.298Z,6.20
2023-11-29T11:28:36.091Z,6.63
2023-11-29T11:31:11.094Z,5.37
2023-11-29T11:34:11.009Z,5.53
2023-11-29T11:36:41.720Z,5.47
2023-11-29T11:39:12.256Z,5.17
2023-11-29T11:41:42.400Z,5.47
2023-11-29T11:44:12.487Z,5.37
2023-11-29T11:46:44.953Z,5.40
2023-11-29T11:49:14.814Z,4.93
2023-11-29T11:51:44.647Z,5.83
2023-11-29T11:54:14.411Z,4.93
2023-11-29T11:56:44.175Z,5.50
2023-11-29T11:59:14.006Z,5.20
2023-11-29T12:01:46.760Z,6.00
2023-11-29T12:04:18.996Z,5.80
2023-11-29T12:06:48.892Z,5.60
2023-11-29T12:09:20.230Z,6.00
2023-11-29T12:11:50.664Z,5.60
2023-11-29T12:14:20.948Z,6.47
2023-11-29T12:16:57.429Z,5.83
2023-11-29T12:19:27.369Z,6.00
2023-11-29T12:21:58.578Z,6.60
2023-11-29T12:24:36.068Z,6.13
2023-11-29T12:27:11.219Z,5.47
2023-11-29T12:29:42.386Z,6.10
2023-11-29T12:32:15.104Z,6.23
2023-11-29T12:34:45.976Z,6.00
2023-11-29T12:37:17.245Z,6.27
2023-11-29T12:39:47.878Z,5.63
2023-11-29T12:42:18.678Z,6.13
2023-11-29T12:44:48.546Z,6.00
2023-11-29T12:47:24.740Z,6.70
2023-11-29T12:49:54.641Z,6.73
2023-11-29T12:52:24.432Z,6.37
2023-11-29T12:54:54.186Z,5.87
2023-11-29T12:57:24.002Z,6.63
2023-11-29T12:59:53.882Z,6.37
2023-11-29T13:02:26.327Z,6.37
2023-11-29T13:04:56.383Z,6.73
2023-11-29T13:07:26.231Z,6.33
2023-11-29T13:09:55.979Z,5.87
2023-11-29T13:12:25.830Z,6.33
2023-11-29T13:14:55.656Z,5.20
2023-11-29T13:17:28.168Z,5.80
2023-11-29T13:19:57.991Z,6.13
2023-11-29T13:22:27.810Z,6.17
2023-11-29T13:24:57.623Z,5.90
2023-11-29T13:27:27.468Z,4.87
2023-11-29T13:29:57.238Z,5.47
2023-11-29T13:32:29.835Z,5.57
2023-11-29T13:34:59.606Z,6.13
2023-11-29T13:37:29.374Z,6.33
2023-11-29T13:39:59.141Z,7.33
2023-11-29T13:42:29.273Z,7.20
2023-11-29T13:45:02.711Z,7.20
2023-11-29T13:47:36.694Z,8.20
2023-11-29T13:50:07.114Z,7.47
2023-11-29T13:52:37.405Z,9.77
2023-11-29T13:55:08.012Z,7.87
2023-11-29T13:57:37.907Z,6.27
2023-11-29T14:00:10.812Z,6.80
2023-11-29T14:02:43.958Z,5.40
2023-11-29T14:05:14.153Z,5.50
2023-11-29T14:07:44.038Z,4.77
2023-11-29T14:10:13.923Z,4.57
2023-11-29T14:12:43.844Z,4.50
2023-11-29T14:15:14.189Z,3.87
2023-11-29T14:17:46.670Z,4.77
2023-11-29T14:20:17.641Z,5.57
2023-11-29T14:22:47.413Z,5.30
2023-11-29T14:25:17.818Z,5.00
2023-11-29T14:27:54.389Z,4.77
2023-11-29T14:30:27.713Z,4.70
2023-11-29T14:33:00.305Z,4.70
2023-11-29T14:35:30.342Z,4.73
2023-11-29T14:38:00.206Z,4.80
2023-11-29T14:40:30.058Z,5.73
2023-11-29T14:43:00.807Z,5.30
2023-11-29T14:45:30.637Z,5.23
2023-11-29T14:48:03.126Z,5.67
2023-11-29T14:50:32.988Z,5.40
2023-11-29T14:53:02.834Z,6.10
2023-11-29T14:55:32.603Z,5.37
2023-11-29T14:58:02.399Z,6.13
2023-11-29T15:00:32.279Z,5.80
2023-11-29T15:03:04.758Z,5.13
2023-11-29T15:05:35.860Z,6.30
2023-11-29T15:08:06.114Z,4.93
2023-11-29T15:10:36.128Z,5.17
2023-11-29T15:13:06.040Z,6.30
2023-11-29T15:15:35.831Z,5.60
2023-11-29T15:18:08.628Z,5.43
2023-11-29T15:20:38.478Z,5.67
2023-11-29T15:23:08.622Z,5.93
2023-11-29T15:25:38.445Z,5.20
2023-11-29T15:28:08.328Z,5.23
2023-11-29T15:30:38.086Z,4.93
2023-11-29T15:33:10.718Z,4.70
2023-11-29T15:35:40.659Z,4.00
2023-11-29T15:38:11.149Z,5.03
2023-11-29T15:40:46.192Z,4.43
2023-11-29T15:43:16.638Z,4.23
2023-11-29T15:45:46.590Z,4.73
2023-11-29T15:48:19.207Z,4.47
2023-11-29T15:50:49.105Z,4.53
2023-11-29T15:53:19.153Z,4.40
2023-11-29T15:55:50.334Z,4.37
2023-11-29T15:58:20.172Z,4.30
2023-11-29T16:00:49.927Z,4.30
2023-11-29T16:03:22.342Z,4.90
2023-11-29T16:05:57.750Z,4.67
2023-11-29T16:08:27.582Z,4.20
2023-11-29T16:10:58.962Z,4.40
2023-11-29T16:13:28.827Z,4.63
2023-11-29T16:15:58.608Z,4.10
2023-11-29T16:18:31.066Z,3.73
2023-11-29T16:21:00.893Z,4.07
2023-11-29T16:23:30.712Z,3.53
2023-11-29T16:26:00.532Z,4.53
2023-11-29T16:28:32.344Z,3.53
2023-11-29T16:31:02.295Z,4.57
2023-11-29T16:33:35.136Z,4.03
2023-11-29T16:36:05.507Z,4.00
2023-11-29T16:38:35.363Z,4.63
2023-11-29T16:41:05.215Z,4.07
2023-11-29T16:43:35.012Z,4.63
2023-11-29T16:46:05.522Z,4.77
2023-11-29T16:48:38.247Z,4.13
2023-11-29T16:51:09.090Z,4.57
2023-11-29T16:53:38.941Z,4.50
2023-11-29T16:56:11.084Z,4.50
2023-11-29T16:58:41.913Z,4.43
2023-11-29T17:01:12.396Z,4.00
2023-11-29T17:03:44.835Z,4.03
2023-11-29T17:06:14.844Z,4.60
2023-11-29T17:08:44.698Z,5.13
2023-11-29T17:11:14.523Z,4.63
2023-11-29T17:13:44.318Z,5.40
2023-11-29T17:16:14.282Z,5.07
2023-11-29T17:18:46.668Z,5.20
2023-11-29T17:21:16.597Z,5.47
2023-11-29T17:23:46.456Z,5.00
2023-11-29T17:26:16.374Z,5.00
2023-11-29T17:28:46.387Z,4.83
2023-11-29T17:31:16.159Z,5.10
2023-11-29T17:33:48.582Z,4.77
2023-11-29T17:36:18.379Z,4.83
2023-11-29T17:38:48.208Z,5.67
2023-11-29T17:41:17.970Z,4.50
2023-11-29T17:43:47.772Z,4.17
2023-11-29T17:46:17.669Z,4.20
2023-11-29T17:48:50.189Z,4.60
2023-11-29T17:51:20.091Z,4.20
2023-11-29T17:53:49.911Z,3.60
2023-11-29T17:56:28.429Z,4.43
2023-11-29T17:59:02.318Z,4.17
2023-11-29T18:01:32.110Z,4.40
2023-11-29T18:04:06.929Z,4.00
2023-11-29T18:06:37.846Z,5.33
2023-11-29T18:09:09.970Z,4.80
2023-11-29T18:11:41.707Z,4.73
2023-11-29T18:14:12.483Z,5.23
2023-11-29T18:16:44.364Z,5.50
2023-11-29T18:19:19.201Z,5.70
2023-11-29T18:21:48.944Z,5.70
2023-11-29T18:24:18.768Z,5.07
2023-11-29T18:26:49.985Z,4.60
2023-11-29T18:29:19.802Z,5.57
2023-11-29T18:31:51.212Z,5.70
2023-11-29T18:34:25.696Z,5.33
2023-11-29T18:36:55.745Z,5.10
2023-11-29T18:39:25.527Z,4.73
2023-11-29T18:41:55.647Z,5.43
2023-11-29T18:44:25.458Z,5.13
2023-11-29T18:46:55.214Z,4.90
2023-11-29T18:49:27.714Z,4.87
2023-11-29T18:51:57.474Z,4.93
2023-11-29T18:54:27.833Z,5.07
2023-11-29T18:56:57.609Z,4.63
2023-11-29T18:59:27.415Z,4.60
2023-11-29T19:01:57.243Z,4.30
2023-11-29T19:04:29.761Z,4.47
2023-11-29T19:06:59.559Z,4.80
2023-11-29T19:09:30.509Z,4.70
2023-11-29T19:12:01.068Z,5.77
2023-11-29T19:14:30.895Z,4.50
2023-11-29T19:17:01.174Z,4.90
2023-11-29T19:19:33.548Z,4.70
2023-11-29T19:22:03.333Z,5.37
2023-11-29T19:24:33.079Z,4.95
2023-11-29T19:27:04.368Z,5.27
2023-11-29T19:29:34.368Z,5.23
2023-11-29T19:32:04.048Z,4.87
2023-11-29T19:34:36.454Z,5.10
2023-11-29T19:37:06.409Z,5.07
2023-11-29T19:39:36.142Z,5.03
2023-11-29T19:42:06.163Z,4.90
2023-11-29T19:44:36.169Z,5.27
2023-11-29T19:47:12.464Z,5.67
2023-11-29T19:49:47.390Z,4.97
2023-11-29T19:52:18.714Z,4.73
2023-11-29T19:54:48.428Z,4.87
2023-11-29T19:57:18.215Z,4.87
2023-11-29T19:59:49.859Z,4.60
2023-11-29T20:02:20.123Z,4.53
2023-11-29T20:04:52.664Z,5.10
2023-11-29T20:07:22.418Z,4.97
2023-11-29T20:09:52.309Z,5.17
2023-11-29T20:12:22.131Z,5.67
2023-11-29T20:14:57.244Z,5.10
2023-11-29T20:17:27.895Z,5.47
2023-11-29T20:20:04.396Z,5.50
2023-11-29T20:22:40.630Z,4.50
2023-11-29T20:25:11.014Z,5.03
2023-11-29T20:27:42.932Z,5.30
2023-11-29T20:30:14.171Z,5.33
2023-11-29T20:32:44.014Z,5.53
2023-11-29T20:35:32.426Z,4.73
2023-11-29T20:38:06.075Z,4.53
2023-11-29T20:40:44.020Z,5.33
2023-11-29T20:43:17.065Z,5.03
2023-11-29T20:45:47.203Z,4.40
2023-11-29T20:48:17.113Z,5.47
2023-11-29T20:50:49.346Z,5.33
2023-11-29T20:53:19.892Z,5.00
2023-11-29T20:55:50.959Z,5.10
2023-11-29T20:58:22.075Z,5.53
2023-11-29T21:00:52.525Z,4.83
2023-11-29T21:03:22.544Z,4.60
2023-11-29T21:05:54.859Z,4.47
2023-11-29T21:08:24.578Z,5.60
2023-11-29T21:10:54.202Z,7.30
2023-11-29T21:13:24.342Z,5.93
2023-11-29T21:15:54.128Z,5.80
2023-11-29T21:18:23.794Z,6.80
2023-11-29T21:20:56.065Z,4.97
2023-11-29T21:23:25.655Z,5.20
2023-11-29T21:25:55.261Z,4.63
2023-11-29T21:28:24.928Z,4.73
2023-11-29T21:30:54.610Z,5.80
2023-11-29T21:33:24.310Z,5.20
2023-11-29T21:35:56.593Z,4.60
2023-11-29T21:38:26.296Z,3.97
2023-11-29T21:40:55.898Z,4.00
2023-11-29T21:43:25.764Z,4.70
2023-11-29T21:45:55.549Z,5.03
2023-11-29T21:48:25.284Z,4.50
2023-11-29T21:50:57.573Z,4.73
2023-11-29T21:53:27.165Z,5.20
2023-11-29T21:55:56.733Z,4.40
2023-11-29T21:58:26.313Z,4.43
2023-11-29T22:00:55.900Z,4.30
2023-11-29T22:03:25.564Z,4.43
2023-11-29T22:05:58.536Z,4.80
2023-11-29T22:08:28.168Z,4.73
2023-11-29T22:10:57.826Z,4.43
2023-11-29T22:13:27.484Z,4.70
2023-11-29T22:15:57.112Z,4.97
2023-11-29T22:18:26.763Z,4.90
2023-11-29T22:20:59.109Z,4.33
2023-11-29T22:23:28.742Z,4.57
2023-11-29T22:25:59.348Z,4.20
2023-11-29T22:28:30.859Z,4.77
2023-11-29T22:31:00.469Z,4.30
2023-11-29T22:33:30.148Z,4.73
2023-11-29T22:36:02.366Z,3.93
2023-11-29T22:38:32.186Z,4.03
2023-11-29T22:41:01.975Z,4.17
2023-11-29T22:43:31.787Z,5.03
2023-11-29T22:46:01.436Z,4.67
2023-11-29T22:48:31.117Z,5.13
2023-11-29T22:51:03.409Z,5.33
2023-11-29T22:53:33.000Z,4.43
2023-11-29T22:56:02.561Z,4.50
2023-11-29T22:58:32.126Z,5.40
2023-11-29T23:01:01.956Z,4.30
2023-11-29T23:03:34.189Z,5.20
2023-11-29T23:06:08.752Z,4.90
2023-11-29T23:08:38.381Z,5.23
2023-11-29T23:11:08.476Z,4.43
2023-11-29T23:13:38.141Z,5.73
2023-11-29T23:16:08.770Z,7.03
2023-11-29T23:18:38.513Z,6.37
2023-11-29T23:21:11.531Z,5.83
2023-11-29T23:23:41.752Z,5.43
2023-11-29T23:26:11.385Z,5.53
2023-11-29T23:28:40.980Z,5.13
2023-11-29T23:31:11.521Z,5.00
2023-11-29T23:33:41.151Z,4.07
2023-11-29T23:36:14.553Z,4.77
2023-11-29T23:38:44.256Z,4.80
2023-11-29T23:41:17.090Z,4.67
2023-11-29T23:43:46.648Z,4.40
2023-11-29T23:46:16.227Z,4.83
2023-11-29T23:48:45.839Z,4.53
2023-11-29T23:51:18.050Z,4.00
2023-11-29T23:53:48.771Z,4.80
2023-11-29T23:56:18.453Z,4.40
2023-11-29T23:58:48.006Z,3.93
